Time;durP1;ratioP1;P1;durP2;ratioP2;P2;SDS_P1;SDS_P2;PMS_P1;PMS_P2;Temp;Humidity;BMP_temperature;BMP_pressure;BME280_temperature;BME280_humidity;BME280_pressure;Samples;Min_cycle;Max_cycle;Signal;HPM_P1;HPM_P2
2022/04/07 00:02:04;;;;;;;16.13;2.63;;;10.00;96.10;;;;;;5050243;28;25068;-77
2022/04/07 00:04:30;;;;;;;19.00;3.20;;;10.00;95.80;;;;;;5067853;28;25092;-78
2022/04/07 00:06:55;;;;;;;18.55;2.75;;;10.00;95.40;;;;;;5067042;28;25128;-77
2022/04/07 00:09:21;;;;;;;18.58;3.33;;;10.00;95.00;;;;;;5049545;28;25078;-75
2022/04/07 00:11:47;;;;;;;18.27;3.42;;;10.00;94.70;;;;;;5068699;28;25093;-76
2022/04/07 00:14:12;;;;;;;20.13;3.53;;;10.00;94.50;;;;;;5070790;28;25187;-75
2022/04/07 00:16:54;;;;;;;17.67;3.03;;;10.00;94.20;;;;;;5073344;28;25052;-79
2022/04/07 00:19:22;;;;;;;16.25;2.72;;;10.00;94.00;;;;;;5058933;28;25085;-78
2022/04/07 00:21:48;;;;;;;18.27;3.33;;;10.10;93.60;;;;;;5072691;28;25112;-74
2022/04/07 00:24:17;;;;;;;15.10;2.83;;;10.10;93.50;;;;;;5071391;28;25087;-78
2022/04/07 00:26:42;;;;;;;15.18;3.08;;;10.00;94.40;;;;;;5065916;28;25093;-77
2022/04/07 00:29:19;;;;;;;17.30;3.13;;;10.00;95.60;;;;;;5071128;28;25086;-75
2022/04/07 00:31:45;;;;;;;22.65;4.07;;;9.90;96.60;;;;;;5050271;28;25086;-78
2022/04/07 00:34:11;;;;;;;14.23;2.85;;;9.90;97.40;;;;;;5070514;28;25131;-74
2022/04/07 00:36:37;;;;;;;14.35;3.30;;;9.80;98.40;;;;;;5051330;28;25070;-73
2022/04/07 00:39:03;;;;;;;15.18;3.05;;;9.70;99.50;;;;;;5070097;28;25073;-75
2022/04/07 00:41:28;;;;;;;19.40;3.40;;;9.70;99.90;;;;;;5069535;28;25057;-76
2022/04/07 00:43:54;;;;;;;17.70;3.70;;;9.70;99.90;;;;;;5060690;28;25064;-75
2022/04/07 00:46:20;;;;;;;21.30;5.18;;;9.60;99.90;;;;;;5060493;28;25072;-75
2022/04/07 00:48:46;;;;;;;21.88;4.47;;;9.60;99.90;;;;;;5071594;28;25062;-75
2022/04/07 00:51:12;;;;;;;20.23;3.92;;;9.50;99.90;;;;;;5082657;28;25098;-76
2022/04/07 00:53:39;;;;;;;25.67;4.95;;;9.50;99.90;;;;;;5081830;28;25064;-78
2022/04/07 00:56:07;;;;;;;27.52;4.85;;;9.50;99.90;;;;;;5070152;28;25060;-75
2022/04/07 00:58:33;;;;;;;28.23;4.10;;;9.50;99.90;;;;;;5052090;28;25052;-77
2022/04/07 01:00:59;;;;;;;33.25;5.55;;;9.40;99.90;;;;;;5069412;28;25060;-72
2022/04/07 01:03:25;;;;;;;23.20;4.85;;;9.40;99.90;;;;;;5069496;28;25125;-74
2022/04/07 01:05:51;;;;;;;27.98;5.47;;;9.30;99.90;;;;;;5074623;28;25066;-74
2022/04/07 01:08:17;;;;;;;29.90;5.28;;;9.40;99.90;;;;;;5068901;28;25053;-74
2022/04/07 01:10:43;;;;;;;26.08;4.90;;;9.30;99.90;;;;;;5067880;28;25064;-75
2022/04/07 01:13:11;;;;;;;22.75;5.60;;;9.30;99.90;;;;;;5068815;28;25070;-74
2022/04/07 01:15:37;;;;;;;22.77;4.88;;;9.30;99.90;;;;;;5052305;28;25094;-76
2022/04/07 01:18:03;;;;;;;25.33;4.80;;;9.20;99.90;;;;;;5069004;28;25090;-75
2022/04/07 01:20:30;;;;;;;31.80;4.75;;;9.30;99.90;;;;;;5062872;28;25070;-74
2022/04/07 01:22:56;;;;;;;26.52;5.35;;;9.30;99.90;;;;;;5072339;28;25100;-78
2022/04/07 01:25:25;;;;;;;28.98;5.20;;;9.30;99.90;;;;;;5049985;28;25135;-76
2022/04/07 01:27:52;;;;;;;27.38;4.68;;;9.30;99.90;;;;;;5054001;28;25080;-77
2022/04/07 01:30:18;;;;;;;34.55;7.07;;;9.40;99.90;;;;;;5055406;28;25056;-73
2022/04/07 01:32:47;;;;;;;36.13;6.90;;;9.40;99.90;;;;;;5061014;28;25061;-77
2022/04/07 01:35:13;;;;;;;19.95;4.38;;;9.40;99.90;;;;;;5060481;28;25110;-76
2022/04/07 01:37:41;;;;;;;23.10;4.28;;;9.40;99.90;;;;;;5065462;28;25097;-74
2022/04/07 01:40:09;;;;;;;32.25;4.20;;;9.40;99.90;;;;;;5065733;28;25057;-76
2022/04/07 01:42:37;;;;;;;35.80;4.63;;;9.40;99.90;;;;;;5036298;28;25062;-76
2022/04/07 01:45:04;;;;;;;25.27;4.78;;;9.50;99.90;;;;;;5062574;28;25068;-75
2022/04/07 01:47:32;;;;;;;22.65;4.13;;;9.50;99.90;;;;;;5070036;28;25058;-77
2022/04/07 01:50:03;;;;;;;25.58;4.40;;;9.50;99.90;;;;;;5078328;28;25053;-78
2022/04/07 01:52:29;;;;;;;17.70;4.00;;;9.50;99.90;;;;;;5064915;28;25069;-73
2022/04/07 01:54:57;;;;;;;20.52;4.05;;;9.50;99.90;;;;;;5074237;28;25054;-74
2022/04/07 01:57:24;;;;;;;17.52;3.53;;;9.50;99.90;;;;;;5057545;28;25132;-74
2022/04/07 01:59:51;;;;;;;26.13;4.40;;;9.50;99.90;;;;;;5067726;28;25075;-75
2022/04/07 02:02:16;;;;;;;20.35;4.45;;;9.50;99.90;;;;;;5096851;28;25075;-78
2022/04/07 02:04:56;;;;;;;26.98;3.97;;;9.50;99.90;;;;;;5079537;28;25066;-77
2022/04/07 02:07:22;;;;;;;22.67;4.22;;;9.50;99.90;;;;;;5077014;28;25061;-78
2022/04/07 02:09:48;;;;;;;23.77;3.75;;;9.50;99.90;;;;;;5068115;28;25075;-79
2022/04/07 02:12:14;;;;;;;17.92;4.03;;;9.50;99.90;;;;;;5077922;28;25099;-77
2022/04/07 02:14:40;;;;;;;23.65;4.22;;;9.50;99.90;;;;;;5074900;28;25119;-72
2022/04/07 02:17:06;;;;;;;27.33;5.28;;;9.50;99.90;;;;;;5086398;28;25064;-78
2022/04/07 02:19:32;;;;;;;31.60;5.43;;;9.50;99.90;;;;;;5071725;28;25097;-76
2022/04/07 02:21:58;;;;;;;30.42;5.10;;;9.50;99.90;;;;;;5058503;28;25164;-75
2022/04/07 02:24:23;;;;;;;29.55;5.82;;;9.50;99.90;;;;;;5065539;28;25072;-77
2022/04/07 02:26:49;;;;;;;28.10;5.32;;;9.50;99.90;;;;;;5076515;28;25081;-80
2022/04/07 02:29:15;;;;;;;29.60;4.80;;;9.50;99.90;;;;;;5070208;28;25128;-76
2022/04/07 02:31:40;;;;;;;23.52;5.35;;;9.50;99.90;;;;;;5070860;28;25131;-75
2022/04/07 02:34:06;;;;;;;25.08;4.75;;;9.50;99.90;;;;;;5055706;28;25060;-77
2022/04/07 02:36:32;;;;;;;32.15;5.25;;;9.50;99.90;;;;;;5068994;28;25061;-76
2022/04/07 02:38:58;;;;;;;31.08;5.15;;;9.50;99.90;;;;;;5072924;28;25142;-77
2022/04/07 02:41:24;;;;;;;31.10;5.72;;;9.50;99.90;;;;;;5060890;28;25074;-76
2022/04/07 02:43:50;;;;;;;26.38;4.78;;;9.60;99.90;;;;;;5059200;28;25068;-75
2022/04/07 02:46:15;;;;;;;29.33;5.25;;;9.60;99.90;;;;;;5059862;28;25117;-77
2022/04/07 02:48:41;;;;;;;27.77;4.75;;;9.60;99.90;;;;;;5079011;28;25061;-77
2022/04/07 02:51:06;;;;;;;26.02;5.07;;;9.70;99.90;;;;;;5053017;28;25160;-76
2022/04/07 02:53:32;;;;;;;32.58;5.03;;;9.70;99.90;;;;;;5069873;28;25051;-78
2022/04/07 02:55:57;;;;;;;34.92;5.43;;;9.60;99.90;;;;;;5071097;28;25068;-74
2022/04/07 02:58:23;;;;;;;31.80;5.25;;;9.70;99.90;;;;;;5090457;28;25062;-74
2022/04/07 03:00:49;;;;;;;26.73;6.50;;;9.70;99.90;;;;;;5063045;28;25065;-78
2022/04/07 03:03:14;;;;;;;27.50;5.72;;;9.80;99.50;;;;;;5061020;28;25058;-76
2022/04/07 03:05:40;;;;;;;32.80;5.22;;;9.80;98.80;;;;;;5063117;28;25096;-78
2022/04/07 03:08:06;;;;;;;22.33;4.57;;;9.80;98.40;;;;;;5050194;28;25068;-76
2022/04/07 03:10:31;;;;;;;25.55;5.75;;;9.80;97.70;;;;;;5069467;28;25060;-75
2022/04/07 03:12:57;;;;;;;27.83;4.72;;;9.80;97.50;;;;;;5062646;28;25070;-76
2022/04/07 03:15:23;;;;;;;31.55;5.63;;;9.80;97.70;;;;;;5061137;28;25078;-73
2022/04/07 03:17:48;;;;;;;33.55;5.57;;;9.80;98.20;;;;;;5072533;28;25088;-76
2022/04/07 03:20:14;;;;;;;40.90;5.72;;;9.70;99.10;;;;;;5070861;28;25193;-77
2022/04/07 03:22:39;;;;;;;29.08;5.85;;;9.70;99.90;;;;;;5082207;28;25067;-74
2022/04/07 03:25:05;;;;;;;27.23;5.55;;;9.70;99.90;;;;;;5081792;28;25066;-72
2022/04/07 03:27:31;;;;;;;26.35;5.70;;;9.60;99.90;;;;;;5053534;28;25070;-73
2022/04/07 03:29:56;;;;;;;28.73;5.68;;;9.60;99.90;;;;;;5057993;28;25068;-74
2022/04/07 03:32:22;;;;;;;28.38;7.20;;;9.60;99.90;;;;;;5059744;28;25065;-74
2022/04/07 03:34:48;;;;;;;32.53;5.40;;;9.50;99.90;;;;;;5066068;28;25052;-73
2022/04/07 03:37:14;;;;;;;33.03;5.32;;;9.50;99.90;;;;;;5082830;28;25173;-76
2022/04/07 03:39:40;;;;;;;28.27;4.72;;;9.50;99.90;;;;;;5086427;28;25069;-74
2022/04/07 03:42:06;;;;;;;30.52;5.13;;;9.50;99.90;;;;;;5085133;28;25070;-74
2022/04/07 03:44:31;;;;;;;28.50;5.50;;;9.50;99.90;;;;;;5085809;28;25129;-77
2022/04/07 03:46:58;;;;;;;25.13;5.75;;;9.50;99.90;;;;;;5085455;28;25082;-74
2022/04/07 03:49:24;;;;;;;28.88;5.28;;;9.50;99.90;;;;;;5083315;28;25071;-74
2022/04/07 03:51:50;;;;;;;31.05;4.80;;;9.50;99.90;;;;;;5072166;28;25135;-75
2022/04/07 03:54:17;;;;;;;27.63;4.95;;;9.50;99.90;;;;;;5065953;28;25061;-78
2022/04/07 03:56:43;;;;;;;33.22;5.03;;;9.50;99.90;;;;;;5070072;28;25057;-75
2022/04/07 03:59:08;;;;;;;20.42;3.70;;;9.50;99.90;;;;;;5070604;28;25063;-74
2022/04/07 04:01:35;;;;;;;22.52;5.28;;;9.50;99.90;;;;;;5053835;28;25096;-74
2022/04/07 04:04:01;;;;;;;24.73;4.65;;;9.50;99.90;;;;;;5072663;28;25061;-73
2022/04/07 04:06:27;;;;;;;18.38;3.83;;;9.60;99.90;;;;;;5071861;28;25053;-73
2022/04/07 04:08:53;;;;;;;20.23;4.07;;;9.60;99.90;;;;;;5057068;28;25069;-76
2022/04/07 04:11:18;;;;;;;16.88;3.42;;;9.70;99.00;;;;;;5045655;28;25123;-75
2022/04/07 04:13:45;;;;;;;21.70;4.28;;;9.70;97.70;;;;;;5054086;28;25046;-73
2022/04/07 04:16:13;;;;;;;16.05;4.35;;;9.70;96.00;;;;;;5066258;28;25057;-78
2022/04/07 04:18:39;;;;;;;17.52;3.50;;;9.80;95.60;;;;;;5066736;28;25087;-75
2022/04/07 04:21:04;;;;;;;18.58;3.75;;;9.80;95.10;;;;;;5070397;28;25049;-73
2022/04/07 04:23:30;;;;;;;18.83;3.13;;;9.80;94.80;;;;;;5063267;28;25057;-75
2022/04/07 04:25:55;;;;;;;19.60;3.30;;;9.70;94.60;;;;;;5064320;28;25138;-76
2022/04/07 04:28:21;;;;;;;16.50;3.58;;;9.80;92.80;;;;;;5065410;28;25061;-74
2022/04/07 04:30:46;;;;;;;14.70;3.28;;;9.70;93.90;;;;;;5053681;28;25074;-71
2022/04/07 04:33:12;;;;;;;15.70;2.83;;;9.70;94.10;;;;;;5071025;28;25062;-75
2022/04/07 04:35:37;;;;;;;16.55;3.20;;;9.70;94.50;;;;;;5066900;28;25065;-76
2022/04/07 04:38:03;;;;;;;17.95;4.15;;;9.60;94.30;;;;;;5063581;28;25055;-77
2022/04/07 04:40:29;;;;;;;15.93;3.80;;;9.70;94.80;;;;;;5063648;28;25138;-72
2022/04/07 04:42:54;;;;;;;18.35;3.95;;;9.60;95.30;;;;;;5053811;28;25076;-73
2022/04/07 04:45:20;;;;;;;14.23;3.45;;;9.60;95.90;;;;;;5070719;28;25086;-74
2022/04/07 04:47:45;;;;;;;16.83;3.63;;;9.50;96.20;;;;;;5072789;28;25076;-74
2022/04/07 04:50:13;;;;;;;17.55;3.78;;;9.50;97.00;;;;;;5073463;28;25051;-73
2022/04/07 04:52:39;;;;;;;14.73;3.40;;;9.50;97.80;;;;;;5071663;28;25075;-73
2022/04/07 04:55:05;;;;;;;16.52;3.83;;;9.40;99.10;;;;;;5071333;28;25082;-74
2022/04/07 04:57:31;;;;;;;14.15;3.38;;;9.40;99.90;;;;;;5067213;28;25073;-76
2022/04/07 04:59:56;;;;;;;15.73;3.95;;;9.30;99.90;;;;;;5071348;28;25062;-75
2022/04/07 05:02:22;;;;;;;13.30;3.38;;;9.30;99.90;;;;;;5053572;28;25139;-76
2022/04/07 05:04:47;;;;;;;17.67;4.68;;;9.30;99.90;;;;;;5067031;28;25054;-74
2022/04/07 05:07:13;;;;;;;18.65;4.18;;;9.20;99.90;;;;;;5070755;28;25090;-74
2022/04/07 05:09:38;;;;;;;10.23;3.80;;;9.20;99.90;;;;;;5071046;28;25181;-72
2022/04/07 05:12:05;;;;;;;12.43;3.45;;;9.20;99.90;;;;;;5069477;28;25162;-72
2022/04/07 05:14:30;;;;;;;15.70;3.00;;;9.20;99.90;;;;;;5070100;28;25098;-74
2022/04/07 05:16:56;;;;;;;14.27;4.05;;;9.20;99.90;;;;;;5068378;28;25084;-76
2022/04/07 05:19:21;;;;;;;9.45;3.80;;;9.20;99.90;;;;;;5069215;28;25075;-74
2022/04/07 05:21:49;;;;;;;6.38;3.22;;;9.20;99.90;;;;;;5070033;28;25082;-75
2022/04/07 05:24:17;;;;;;;10.68;4.07;;;9.20;99.90;;;;;;5043735;28;25054;-73
2022/04/07 05:26:44;;;;;;;10.07;4.00;;;9.20;99.90;;;;;;5060473;28;25080;-73
2022/04/07 05:29:09;;;;;;;7.60;4.13;;;9.20;99.90;;;;;;5051876;28;25056;-73
2022/04/07 05:31:36;;;;;;;10.70;4.50;;;9.20;99.90;;;;;;5069635;28;25077;-74
2022/04/07 05:34:01;;;;;;;10.98;4.50;;;9.20;99.90;;;;;;5050130;28;25091;-76
2022/04/07 05:36:27;;;;;;;11.15;4.93;;;9.20;99.90;;;;;;5069117;28;25414;-73
2022/04/07 05:38:53;;;;;;;12.95;4.20;;;9.20;99.90;;;;;;5070458;28;25123;-73
2022/04/07 05:41:19;;;;;;;7.35;3.95;;;9.20;99.90;;;;;;5071415;28;25104;-77
2022/04/07 05:43:44;;;;;;;12.52;4.07;;;9.30;99.90;;;;;;5053586;28;25044;-72
2022/04/07 05:46:10;;;;;;;5.00;3.30;;;9.30;99.90;;;;;;5071267;28;25079;-74
2022/04/07 05:48:35;;;;;;;8.02;3.83;;;9.30;99.90;;;;;;5052789;28;25103;-74
2022/04/07 05:51:01;;;;;;;10.18;3.78;;;9.20;99.90;;;;;;5070924;28;25089;-75
2022/04/07 05:53:27;;;;;;;9.70;5.35;;;9.20;99.90;;;;;;5070934;28;25074;-73
2022/04/07 05:55:52;;;;;;;6.68;3.58;;;9.20;99.90;;;;;;5071662;28;25067;-77
2022/04/07 05:58:19;;;;;;;8.48;4.05;;;9.20;99.90;;;;;;5090773;28;25069;-72
2022/04/07 06:00:45;;;;;;;9.93;4.00;;;9.20;99.90;;;;;;5090884;28;25139;-73
2022/04/07 06:03:11;;;;;;;11.48;4.55;;;9.20;99.90;;;;;;5090637;28;25081;-73
2022/04/07 06:05:37;;;;;;;7.85;4.65;;;9.20;99.90;;;;;;5091013;28;25102;-73
2022/04/07 06:08:03;;;;;;;10.43;4.10;;;9.20;99.90;;;;;;5072269;28;25137;-73
2022/04/07 06:10:29;;;;;;;14.02;2.42;;;9.20;99.90;;;;;;5089194;28;25141;-73
2022/04/07 06:12:54;;;;;;;15.50;1.88;;;8.20;99.90;;;;;;5049122;28;25084;-76
2022/04/07 06:15:21;;;;;;;16.95;2.70;;;7.30;99.90;;;;;;5050730;28;25058;-74
2022/04/07 06:17:47;;;;;;;10.55;1.88;;;6.70;99.90;;;;;;5050837;28;25097;-71
2022/04/07 06:20:13;;;;;;;18.05;2.45;;;6.40;99.90;;;;;;5051094;28;25092;-72
2022/04/07 06:22:41;;;;;;;19.20;2.65;;;6.30;99.90;;;;;;5050862;28;25171;-71
2022/04/07 06:25:07;;;;;;;10.75;2.10;;;6.30;99.90;;;;;;5050451;28;25095;-74
2022/04/07 06:27:37;;;;;;;14.13;2.63;;;6.30;99.90;;;;;;5050858;28;25108;-74
2022/04/07 06:30:04;;;;;;;10.98;2.13;;;6.30;99.90;;;;;;5051078;28;25056;-74
2022/04/07 06:32:30;;;;;;;12.13;3.05;;;6.40;99.90;;;;;;5057475;28;25095;-74
2022/04/07 06:34:55;;;;;;;10.27;2.60;;;6.40;99.90;;;;;;5052516;28;25082;-74
2022/04/07 06:37:21;;;;;;;12.57;2.47;;;6.50;99.90;;;;;;5052784;28;25054;-74
2022/04/07 06:39:47;;;;;;;14.30;2.63;;;6.50;99.90;;;;;;5070988;28;25063;-75
2022/04/07 06:42:12;;;;;;;23.02;3.13;;;6.50;99.90;;;;;;5070291;28;25097;-74
2022/04/07 06:44:38;;;;;;;11.95;3.08;;;6.50;99.90;;;;;;5070316;28;25134;-72
2022/04/07 06:47:04;;;;;;;21.83;4.18;;;6.50;99.90;;;;;;5071390;28;25054;-73
2022/04/07 06:49:29;;;;;;;17.60;3.25;;;6.60;99.90;;;;;;5070931;28;25060;-74
2022/04/07 06:51:55;;;;;;;16.88;3.72;;;6.60;99.90;;;;;;5070606;28;24972;-74
2022/04/07 06:54:21;;;;;;;23.85;3.65;;;6.60;99.90;;;;;;5070796;28;25149;-73
2022/04/07 06:56:46;;;;;;;24.35;3.72;;;6.60;99.90;;;;;;5063493;28;25072;-72
2022/04/07 06:59:12;;;;;;;18.60;3.80;;;6.70;99.90;;;;;;5072743;28;25062;-74
2022/04/07 07:01:38;;;;;;;24.70;3.58;;;6.70;99.90;;;;;;5072968;28;25080;-74
2022/04/07 07:04:04;;;;;;;19.80;3.97;;;6.70;99.90;;;;;;5090888;28;25084;-73
2022/04/07 07:06:29;;;;;;;23.58;3.72;;;6.70;99.90;;;;;;5091117;28;25060;-75
2022/04/07 07:08:55;;;;;;;23.10;4.25;;;6.70;99.90;;;;;;5091361;28;25068;-73
2022/04/07 07:11:21;;;;;;;19.40;4.15;;;6.70;99.90;;;;;;5075867;28;25058;-74
2022/04/07 07:13:46;;;;;;;20.83;3.20;;;6.70;99.90;;;;;;5050611;28;25074;-73
2022/04/07 07:16:12;;;;;;;30.35;3.58;;;6.70;99.90;;;;;;5050238;28;25084;-75
2022/04/07 07:18:38;;;;;;;18.52;3.65;;;6.70;99.90;;;;;;5034460;28;25070;-77
2022/04/07 07:21:05;;;;;;;15.75;2.92;;;6.70;99.90;;;;;;5054590;28;25129;-74
2022/04/07 07:23:32;;;;;;;14.43;2.40;;;6.80;99.90;;;;;;5050795;28;25050;-73
2022/04/07 07:25:58;;;;;;;12.20;2.88;;;6.70;99.90;;;;;;5033768;28;25041;-73
2022/04/07 07:28:23;;;;;;;14.00;2.20;;;6.70;99.90;;;;;;5051316;28;25143;-74
2022/04/07 07:30:49;;;;;;;13.05;2.13;;;6.80;99.90;;;;;;5043490;28;25108;-77
2022/04/07 07:33:14;;;;;;;19.95;2.42;;;6.80;99.90;;;;;;5081714;28;25114;-77
2022/04/07 07:35:42;;;;;;;13.48;2.38;;;6.90;99.90;;;;;;5064569;28;25073;-77
2022/04/07 07:38:08;;;;;;;13.98;2.42;;;6.90;99.90;;;;;;5058295;28;25150;-75
2022/04/07 07:40:34;;;;;;;12.60;2.55;;;6.90;99.90;;;;;;5052740;28;25082;-73
2022/04/07 07:43:01;;;;;;;6.32;2.03;;;6.80;99.90;;;;;;5070518;28;25048;-74
2022/04/07 07:45:32;;;;;;;12.18;2.60;;;6.90;99.90;;;;;;5070030;28;25076;-74
2022/04/07 07:47:57;;;;;;;9.05;1.95;;;6.90;99.90;;;;;;5052129;28;25106;-74
2022/04/07 07:50:23;;;;;;;7.32;1.42;;;7.00;99.90;;;;;;5070301;28;25091;-74
2022/04/07 07:52:49;;;;;;;9.20;1.83;;;7.00;99.90;;;;;;5052617;28;25113;-75
2022/04/07 07:55:15;;;;;;;15.02;2.20;;;7.20;99.90;;;;;;5071477;28;25080;-73
2022/04/07 07:57:41;;;;;;;7.95;1.77;;;7.30;99.90;;;;;;5069038;28;25063;-75
2022/04/07 08:00:09;;;;;;;7.78;1.90;;;7.50;99.90;;;;;;5073039;28;25162;-73
2022/04/07 08:02:35;;;;;;;15.68;2.50;;;7.60;99.90;;;;;;5090994;28;25054;-74
2022/04/07 08:05:01;;;;;;;9.02;1.50;;;7.80;99.90;;;;;;5091305;28;25060;-74
2022/04/07 08:07:27;;;;;;;9.60;2.22;;;7.90;99.90;;;;;;5073025;28;25104;-74
2022/04/07 08:09:56;;;;;;;6.32;1.45;;;7.80;99.90;;;;;;5090526;28;25051;-72
2022/04/07 08:12:25;;;;;;;8.68;1.67;;;7.70;99.90;;;;;;5074458;28;25070;-75
2022/04/07 08:14:51;;;;;;;9.32;1.88;;;7.70;99.90;;;;;;5069693;28;25070;-73
2022/04/07 08:17:17;;;;;;;7.45;1.73;;;7.80;99.90;;;;;;5071788;28;25053;-71
2022/04/07 08:19:43;;;;;;;6.63;1.45;;;8.20;99.90;;;;;;5055678;28;25068;-73
2022/04/07 08:22:08;;;;;;;9.07;1.90;;;8.50;99.90;;;;;;5072515;28;25076;-73
2022/04/07 08:24:34;;;;;;;8.48;1.77;;;8.60;99.90;;;;;;5053967;28;25067;-73
2022/04/07 08:27:01;;;;;;;9.27;1.52;;;8.60;99.90;;;;;;5069825;28;25061;-72
2022/04/07 08:29:27;;;;;;;8.48;1.67;;;8.60;99.90;;;;;;5051954;28;25052;-71
2022/04/07 08:31:53;;;;;;;10.07;1.88;;;8.60;99.90;;;;;;5067378;28;25075;-74
2022/04/07 08:34:19;;;;;;;11.00;2.20;;;8.60;99.90;;;;;;5048825;28;25066;-72
2022/04/07 08:36:45;;;;;;;9.68;1.67;;;8.90;99.90;;;;;;5034530;28;25042;-74
2022/04/07 08:39:11;;;;;;;10.93;1.95;;;9.10;99.90;;;;;;5052359;28;25063;-72
2022/04/07 08:41:39;;;;;;;6.63;1.40;;;9.30;99.90;;;;;;5052259;28;25046;-73
2022/04/07 08:44:04;;;;;;;11.07;2.17;;;9.40;99.90;;;;;;5051836;28;25070;-72
2022/04/07 08:46:32;;;;;;;10.10;2.10;;;9.40;99.90;;;;;;5053136;28;25055;-74
2022/04/07 08:49:01;;;;;;;14.90;1.88;;;9.20;99.90;;;;;;5054367;28;25055;-74
2022/04/07 08:51:28;;;;;;;17.10;2.72;;;9.50;99.90;;;;;;5056158;28;25071;-74
2022/04/07 08:53:54;;;;;;;14.23;2.10;;;9.40;99.90;;;;;;5054154;28;25070;-72
2022/04/07 08:56:19;;;;;;;10.68;2.45;;;9.40;99.90;;;;;;5063179;28;25075;-72
2022/04/07 08:58:45;;;;;;;9.23;2.10;;;9.10;99.90;;;;;;5075955;28;25092;-71
2022/04/07 09:01:11;;;;;;;13.98;1.75;;;9.30;99.90;;;;;;5094238;28;25105;-72
2022/04/07 09:03:37;;;;;;;15.32;1.95;;;9.30;99.90;;;;;;5094900;28;25103;-73
2022/04/07 09:06:03;;;;;;;6.88;1.80;;;9.50;99.90;;;;;;5102057;28;25051;-71
2022/04/07 09:08:39;;;;;;;10.75;1.92;;;9.50;99.90;;;;;;5102631;28;25130;-71
2022/04/07 09:11:09;;;;;;;8.35;2.47;;;9.50;99.90;;;;;;5098922;28;25045;-71
2022/04/07 09:13:39;;;;;;;16.05;2.42;;;9.90;99.90;;;;;;5075830;28;25052;-73
2022/04/07 09:16:12;;;;;;;6.05;1.58;;;10.00;99.90;;;;;;5095659;28;25051;-73
2022/04/07 09:18:38;;;;;;;8.77;1.60;;;10.10;99.90;;;;;;5085517;28;25068;-72
2022/04/07 09:21:05;;;;;;;8.75;1.80;;;10.20;97.00;;;;;;5079302;28;25069;-73
2022/04/07 09:23:41;;;;;;;9.43;2.20;;;10.30;95.20;;;;;;5091885;28;25176;-71
2022/04/07 09:26:14;;;;;;;14.18;2.30;;;10.40;90.20;;;;;;5111256;28;25040;-74
2022/04/07 09:28:41;;;;;;;9.48;2.45;;;10.40;83.30;;;;;;5108036;28;25052;-76
2022/04/07 09:31:10;;;;;;;14.93;2.20;;;10.40;82.20;;;;;;5098053;28;25046;-75
2022/04/07 09:33:36;;;;;;;13.77;2.10;;;10.20;82.00;;;;;;5104519;28;25059;-79
2022/04/07 09:36:05;;;;;;;11.10;2.58;;;10.20;82.20;;;;;;5112909;28;25063;-75
2022/04/07 09:38:32;;;;;;;15.13;2.35;;;10.20;81.10;;;;;;5084233;28;25103;-74
2022/04/07 09:41:09;;;;;;;14.95;2.35;;;10.20;82.20;;;;;;5075356;28;25064;-74
2022/04/07 09:43:46;;;;;;;14.25;2.70;;;10.10;73.10;;;;;;5072666;28;25065;-76
2022/04/07 09:46:14;;;;;;;16.75;4.13;;;10.20;71.90;;;;;;5071549;28;25105;-74
2022/04/07 09:48:57;;;;;;;16.67;2.60;;;10.20;70.70;;;;;;5072394;28;25194;-74
2022/04/07 09:51:23;;;;;;;16.52;3.28;;;10.20;68.80;;;;;;5055071;28;25058;-75
2022/04/07 09:53:51;;;;;;;18.38;3.50;;;10.30;66.70;;;;;;5072581;28;25069;-73
2022/04/07 09:56:18;;;;;;;16.55;3.50;;;10.20;66.60;;;;;;5071811;28;25080;-75
2022/04/07 09:58:44;;;;;;;18.58;3.60;;;10.20;68.80;;;;;;5057255;28;25056;-72
2022/04/07 10:01:10;;;;;;;20.00;3.30;;;10.10;66.10;;;;;;5053395;28;25056;-73
2022/04/07 10:03:37;;;;;;;14.60;2.88;;;10.10;64.30;;;;;;5052440;28;25112;-74
2022/04/07 10:06:05;;;;;;;24.20;4.00;;;10.10;64.30;;;;;;5051732;28;25110;-75
2022/04/07 10:08:31;;;;;;;16.75;3.40;;;10.00;63.00;;;;;;5052255;28;25064;-74
2022/04/07 10:10:58;;;;;;;20.05;3.60;;;9.90;64.10;;;;;;5061543;28;25063;-73
2022/04/07 10:13:27;;;;;;;14.73;3.45;;;10.10;67.50;;;;;;5093751;28;25064;-73
2022/04/07 10:15:53;;;;;;;14.73;3.13;;;10.30;65.60;;;;;;5091544;28;25074;-71
2022/04/07 10:18:28;;;;;;;18.40;3.65;;;10.20;62.00;;;;;;5092515;28;25068;-72
2022/04/07 10:20:57;;;;;;;22.95;4.07;;;10.10;61.50;;;;;;5077463;28;25063;-73
2022/04/07 10:23:46;;;;;;;15.88;3.20;;;9.90;60.00;;;;;;5095104;28;25066;-71
2022/04/07 10:26:14;;;;;;;21.58;3.88;;;9.90;58.80;;;;;;5094940;28;25058;-76
2022/04/07 10:28:40;;;;;;;21.92;3.95;;;9.90;60.20;;;;;;5095033;28;25071;-72
2022/04/07 10:31:15;;;;;;;12.68;3.30;;;9.90;60.20;;;;;;5094210;28;25065;-72
2022/04/07 10:33:46;;;;;;;20.40;3.90;;;9.90;60.30;;;;;;5058019;28;25060;-75
2022/04/07 10:36:19;;;;;;;18.88;4.07;;;10.00;59.70;;;;;;5071384;28;25067;-72
2022/04/07 10:38:47;;;;;;;30.20;4.70;;;10.00;60.20;;;;;;5071380;28;25059;-74
2022/04/07 10:41:38;;;;;;;21.30;3.97;;;10.00;59.20;;;;;;5071856;28;25057;-74
2022/04/07 10:44:10;;;;;;;22.45;3.85;;;10.00;59.20;;;;;;5086009;28;25135;-76
2022/04/07 10:46:35;;;;;;;21.90;4.03;;;10.10;57.10;;;;;;5084329;28;25067;-71
2022/04/07 10:49:09;;;;;;;21.77;3.78;;;10.10;59.30;;;;;;5071192;28;25081;-72
2022/04/07 10:51:45;;;;;;;20.02;3.78;;;10.10;55.90;;;;;;5070719;28;25077;-72
2022/04/07 10:54:14;;;;;;;20.85;3.58;;;10.20;56.60;;;;;;5069769;28;25064;-74
2022/04/07 10:56:49;;;;;;;30.58;4.90;;;10.20;56.30;;;;;;5077741;28;25071;-73
2022/04/07 10:59:18;;;;;;;11.68;3.13;;;10.10;56.30;;;;;;5072382;28;25067;-76
2022/04/07 11:01:44;;;;;;;16.77;3.35;;;10.30;56.60;;;;;;5090568;28;25087;-73
2022/04/07 11:07:10;;;;;;;20.38;3.88;;;10.40;55.70;;;;;;5090400;28;25061;-73
2022/04/07 11:10:04;;;;;;;19.02;3.67;;;10.50;53.70;;;;;;5090456;28;25079;-74
2022/04/07 11:12:43;;;;;;;18.35;3.25;;;10.80;50.50;;;;;;5044851;28;25059;-77
2022/04/07 11:15:51;;;;;;;14.00;3.70;;;10.90;50.20;;;;;;5056155;28;25072;-72
2022/04/07 11:18:28;;;;;;;20.45;4.05;;;10.80;47.30;;;;;;5005749;28;25087;-73
2022/04/07 11:21:10;;;;;;;18.67;3.92;;;11.00;46.80;;;;;;5055459;28;25065;-74
2022/04/07 11:23:42;;;;;;;15.27;3.50;;;11.30;46.90;;;;;;5052217;28;25063;-74
2022/04/07 11:26:18;;;;;;;17.10;2.97;;;11.60;42.70;;;;;;5091073;28;25064;-74
2022/04/07 11:29:11;;;;;;;12.18;3.38;;;11.40;42.60;;;;;;5091440;28;25173;-75
2022/04/07 11:31:43;;;;;;;;;;;11.60;43.30;;;;;;5071609;28;25055;-74
2022/04/07 11:34:40;;;;;;;19.87;4.27;;;12.00;41.80;;;;;;5031891;28;24077;-73
2022/04/07 11:37:10;;;;;;;26.35;4.63;;;11.70;41.50;;;;;;5049857;28;25089;-73
2022/04/07 11:39:40;;;;;;;16.65;3.33;;;11.80;42.20;;;;;;5049406;28;25062;-70
2022/04/07 11:42:06;;;;;;;19.95;4.35;;;12.00;43.30;;;;;;5048822;28;25096;-75
2022/04/07 11:44:31;;;;;;;16.23;3.38;;;11.80;39.20;;;;;;5049131;28;25079;-75
2022/04/07 11:47:00;;;;;;;24.83;4.00;;;11.70;39.70;;;;;;5048428;28;25158;-75
2022/04/07 11:49:27;;;;;;;21.40;3.50;;;11.50;39.60;;;;;;5049715;28;25069;-74
2022/04/07 11:51:53;;;;;;;16.80;4.07;;;11.30;40.10;;;;;;5031167;28;25068;-76
2022/04/07 11:54:19;;;;;;;17.58;3.38;;;11.30;41.30;;;;;;5048979;28;25056;-75
2022/04/07 11:56:45;;;;;;;22.05;4.10;;;11.30;39.70;;;;;;5050967;28;25156;-72
2022/04/07 11:59:12;;;;;;;22.17;4.53;;;11.50;40.10;;;;;;5051775;28;25080;-73
2022/04/07 12:01:43;;;;;;;18.30;3.63;;;11.50;38.50;;;;;;5050271;28;25096;-75
2022/04/07 12:04:10;;;;;;;15.68;2.85;;;11.40;37.70;;;;;;5049417;28;25119;-72
2022/04/07 12:06:40;;;;;;;17.65;3.58;;;11.40;37.80;;;;;;5049498;28;25108;-77
2022/04/07 12:09:06;;;;;;;12.82;3.15;;;11.60;37.90;;;;;;5049896;28;25079;-74
2022/04/07 12:11:39;;;;;;;19.50;3.55;;;11.70;35.70;;;;;;5054022;28;25142;-77
2022/04/07 12:14:07;;;;;;;18.80;3.47;;;11.60;35.60;;;;;;5075288;28;25061;-74
2022/04/07 12:16:33;;;;;;;17.08;3.40;;;11.80;33.70;;;;;;5075155;28;25056;-72
2022/04/07 12:19:01;;;;;;;18.25;3.55;;;12.20;34.90;;;;;;5093297;28;25081;-72
2022/04/07 12:21:28;;;;;;;16.70;2.97;;;11.80;33.10;;;;;;5074734;28;25066;-72
2022/04/07 12:24:13;;;;;;;21.58;3.67;;;11.80;34.40;;;;;;5074207;28;25080;-77
2022/04/07 12:26:44;;;;;;;19.35;5.03;;;11.90;35.00;;;;;;5093716;28;25078;-74
2022/04/07 12:29:14;;;;;;;22.67;4.20;;;11.80;34.80;;;;;;5094104;28;25155;-72
2022/04/07 12:31:39;;;;;;;23.05;4.93;;;11.80;34.50;;;;;;5093344;28;25137;-74
2022/04/07 12:34:12;;;;;;;14.65;3.13;;;12.30;34.30;;;;;;5072951;28;25062;-75
2022/04/07 12:36:40;;;;;;;24.35;3.67;;;12.40;32.30;;;;;;5072972;28;25071;-75
2022/04/07 12:39:08;;;;;;;21.83;4.63;;;12.60;28.90;;;;;;5056256;28;25167;-74
2022/04/07 12:41:47;;;;;;;17.92;4.10;;;12.70;29.80;;;;;;5072455;28;25058;-77
2022/04/07 12:44:19;;;;;;;20.58;4.50;;;12.60;28.80;;;;;;5055542;28;25056;-76
2022/04/07 12:46:52;;;;;;;18.95;3.90;;;12.70;28.10;;;;;;5054955;28;25087;-75
2022/04/07 12:49:37;;;;;;;15.75;3.70;;;12.60;28.60;;;;;;5073228;28;25061;-72
2022/04/07 12:52:08;;;;;;;17.48;4.00;;;12.40;28.10;;;;;;5072528;28;25148;-74